sensor_id;sensor_type;location;lat;lon;timestamp;pressure;altitude;pressure_sealevel;temperature;humidity
64687;BME280;51113;53.646;-113.674;2023-05-31T00:01:31;92730.44;;;16.13;59.97
64687;BME280;51113;53.646;-113.674;2023-05-31T00:04:00;92716.25;;;16.14;60.61
64687;BME280;51113;53.646;-113.674;2023-05-31T00:06:29;92728.63;;;16.05;61.57
64687;BME280;51113;53.646;-113.674;2023-05-31T00:08:58;92747.38;;;15.78;63.18
64687;BME280;51113;53.646;-113.674;2023-05-31T00:11:26;92748.88;;;15.88;64.27
64687;BME280;51113;53.646;-113.674;2023-05-31T00:13:55;92751.47;;;15.58;64.68
64687;BME280;51113;53.646;-113.674;2023-05-31T00:16:24;92761.56;;;15.77;64.37
64687;BME280;51113;53.646;-113.674;2023-05-31T00:19:13;92755.00;;;15.54;64.44
64687;BME280;51113;53.646;-113.674;2023-05-31T00:21:43;92754.69;;;15.55;65.02
64687;BME280;51113;53.646;-113.674;2023-05-31T00:24:13;92755.81;;;15.37;70.27
64687;BME280;51113;53.646;-113.674;2023-05-31T00:26:42;92760.16;;;15.15;75.63
64687;BME280;51113;53.646;-113.674;2023-05-31T00:29:11;92768.91;;;15.28;72.28
64687;BME280;51113;53.646;-113.674;2023-05-31T00:31:41;92779.66;;;15.35;72.40
64687;BME280;51113;53.646;-113.674;2023-05-31T00:34:09;92795.53;;;15.22;70.23
64687;BME280;51113;53.646;-113.674;2023-05-31T00:36:40;92798.16;;;15.13;71.74
64687;BME280;51113;53.646;-113.674;2023-05-31T00:39:09;92804.00;;;15.10;73.53
64687;BME280;51113;53.646;-113.674;2023-05-31T00:41:38;92803.09;;;15.06;72.82
64687;BME280;51113;53.646;-113.674;2023-05-31T00:44:06;92787.09;;;14.99;71.23
64687;BME280;51113;53.646;-113.674;2023-05-31T00:46:37;92780.16;;;14.85;70.17
64687;BME280;51113;53.646;-113.674;2023-05-31T00:49:06;92810.16;;;14.79;72.22
64687;BME280;51113;53.646;-113.674;2023-05-31T00:51:36;92813.06;;;14.78;69.65
64687;BME280;51113;53.646;-113.674;2023-05-31T00:54:05;92858.47;;;14.91;70.08
64687;BME280;51113;53.646;-113.674;2023-05-31T00:56:34;92884.44;;;14.87;69.42
64687;BME280;51113;53.646;-113.674;2023-05-31T00:59:03;92883.81;;;14.73;68.98
64687;BME280;51113;53.646;-113.674;2023-05-31T01:01:32;92864.16;;;14.93;68.64
64687;BME280;51113;53.646;-113.674;2023-05-31T01:04:04;92851.22;;;14.96;68.28
64687;BME280;51113;53.646;-113.674;2023-05-31T01:06:34;92837.81;;;14.72;76.81
64687;BME280;51113;53.646;-113.674;2023-05-31T01:09:05;92862.13;;;14.24;76.58
64687;BME280;51113;53.646;-113.674;2023-05-31T01:15:04;92837.63;;;13.72;80.28
64687;BME280;51113;53.646;-113.674;2023-05-31T01:19:54;92790.34;;;14.21;83.79
64687;BME280;51113;53.646;-113.674;2023-05-31T01:22:36;92786.25;;;14.38;83.50
64687;BME280;51113;53.646;-113.674;2023-05-31T01:28:26;92752.94;;;14.52;79.54
64687;BME280;51113;53.646;-113.674;2023-05-31T01:31:01;92759.25;;;14.60;79.48
64687;BME280;51113;53.646;-113.674;2023-05-31T01:33:29;92750.34;;;14.61;79.41
64687;BME280;51113;53.646;-113.674;2023-05-31T01:35:59;92751.88;;;14.70;78.73
64687;BME280;51113;53.646;-113.674;2023-05-31T01:38:27;92768.16;;;14.59;77.33
64687;BME280;51113;53.646;-113.674;2023-05-31T01:40:57;92765.25;;;14.60;77.68
64687;BME280;51113;53.646;-113.674;2023-05-31T01:43:27;92783.69;;;14.55;76.63
64687;BME280;51113;53.646;-113.674;2023-05-31T01:45:56;92794.28;;;14.50;74.01
64687;BME280;51113;53.646;-113.674;2023-05-31T01:48:27;92819.13;;;14.39;73.40
64687;BME280;51113;53.646;-113.674;2023-05-31T01:50:58;92846.25;;;14.12;72.25
64687;BME280;51113;53.646;-113.674;2023-05-31T01:53:27;92850.56;;;14.16;74.07
64687;BME280;51113;53.646;-113.674;2023-05-31T01:55:58;92869.63;;;14.17;74.00
64687;BME280;51113;53.646;-113.674;2023-05-31T01:58:28;92867.97;;;14.30;75.92
64687;BME280;51113;53.646;-113.674;2023-05-31T02:00:59;92850.94;;;14.41;73.31
64687;BME280;51113;53.646;-113.674;2023-05-31T02:03:28;92838.50;;;14.38;72.42
64687;BME280;51113;53.646;-113.674;2023-05-31T02:05:59;92839.53;;;14.28;72.09
64687;BME280;51113;53.646;-113.674;2023-05-31T02:08:28;92845.75;;;14.01;71.17
64687;BME280;51113;53.646;-113.674;2023-05-31T02:10:57;92847.06;;;13.90;71.79
64687;BME280;51113;53.646;-113.674;2023-05-31T02:13:30;92858.13;;;13.87;72.16
64687;BME280;51113;53.646;-113.674;2023-05-31T02:15:59;92852.59;;;13.88;72.67
64687;BME280;51113;53.646;-113.674;2023-05-31T02:18:28;92855.06;;;13.94;73.87
64687;BME280;51113;53.646;-113.674;2023-05-31T02:20:57;92845.56;;;13.98;73.04
64687;BME280;51113;53.646;-113.674;2023-05-31T02:23:26;92848.31;;;13.93;72.71
64687;BME280;51113;53.646;-113.674;2023-05-31T02:25:54;92853.22;;;13.94;75.52
64687;BME280;51113;53.646;-113.674;2023-05-31T02:28:23;92851.53;;;13.89;73.81
64687;BME280;51113;53.646;-113.674;2023-05-31T02:30:59;92850.75;;;13.89;73.09
64687;BME280;51113;53.646;-113.674;2023-05-31T02:33:28;92848.88;;;13.81;73.65
64687;BME280;51113;53.646;-113.674;2023-05-31T02:35:57;92846.13;;;13.86;74.99
64687;BME280;51113;53.646;-113.674;2023-05-31T02:38:26;92853.31;;;13.80;73.08
64687;BME280;51113;53.646;-113.674;2023-05-31T02:40:55;92848.34;;;13.70;73.27
64687;BME280;51113;53.646;-113.674;2023-05-31T02:43:24;92850.50;;;13.68;73.42
64687;BME280;51113;53.646;-113.674;2023-05-31T02:45:52;92856.19;;;13.70;73.13
64687;BME280;51113;53.646;-113.674;2023-05-31T02:48:21;92854.16;;;13.67;72.65
64687;BME280;51113;53.646;-113.674;2023-05-31T02:50:49;92851.44;;;13.72;72.67
64687;BME280;51113;53.646;-113.674;2023-05-31T02:53:18;92852.19;;;13.73;73.29
64687;BME280;51113;53.646;-113.674;2023-05-31T02:55:47;92847.31;;;13.80;71.96
64687;BME280;51113;53.646;-113.674;2023-05-31T02:58:15;92846.84;;;13.78;74.00
64687;BME280;51113;53.646;-113.674;2023-05-31T03:00:44;92848.69;;;13.77;71.32
64687;BME280;51113;53.646;-113.674;2023-05-31T03:03:13;92841.75;;;13.73;73.32
64687;BME280;51113;53.646;-113.674;2023-05-31T03:05:42;92851.34;;;13.86;71.90
64687;BME280;51113;53.646;-113.674;2023-05-31T03:08:12;92862.44;;;13.92;71.29
64687;BME280;51113;53.646;-113.674;2023-05-31T03:10:40;92872.72;;;13.88;70.74
64687;BME280;51113;53.646;-113.674;2023-05-31T03:13:09;92886.69;;;13.92;70.17
64687;BME280;51113;53.646;-113.674;2023-05-31T03:15:38;92901.59;;;13.92;70.10
64687;BME280;51113;53.646;-113.674;2023-05-31T03:18:08;92920.69;;;14.01;70.32
64687;BME280;51113;53.646;-113.674;2023-05-31T03:20:36;92938.66;;;14.02;69.10
64687;BME280;51113;53.646;-113.674;2023-05-31T03:23:05;92942.50;;;14.05;68.00
64687;BME280;51113;53.646;-113.674;2023-05-31T03:25:37;92924.66;;;13.98;69.69
64687;BME280;51113;53.646;-113.674;2023-05-31T03:28:06;92933.69;;;13.92;70.14
64687;BME280;51113;53.646;-113.674;2023-05-31T03:30:34;92943.78;;;13.85;70.85
64687;BME280;51113;53.646;-113.674;2023-05-31T03:33:03;92953.09;;;13.77;72.09
64687;BME280;51113;53.646;-113.674;2023-05-31T03:35:32;92953.09;;;13.77;73.96
64687;BME280;51113;53.646;-113.674;2023-05-31T03:38:01;92954.88;;;13.68;74.91
64687;BME280;51113;53.646;-113.674;2023-05-31T03:40:29;92964.19;;;13.61;75.01
64687;BME280;51113;53.646;-113.674;2023-05-31T03:42:58;92956.94;;;13.57;74.34
64687;BME280;51113;53.646;-113.674;2023-05-31T03:45:27;92959.47;;;13.49;74.99
64687;BME280;51113;53.646;-113.674;2023-05-31T03:47:56;92970.03;;;13.44;75.12
64687;BME280;51113;53.646;-113.674;2023-05-31T03:50:25;92973.53;;;13.39;75.90
64687;BME280;51113;53.646;-113.674;2023-05-31T03:52:53;92966.69;;;13.30;76.88
64687;BME280;51113;53.646;-113.674;2023-05-31T03:55:22;92954.63;;;13.20;77.20
64687;BME280;51113;53.646;-113.674;2023-05-31T03:57:53;92949.03;;;12.99;79.07
64687;BME280;51113;53.646;-113.674;2023-05-31T04:00:21;92945.00;;;12.79;79.94
64687;BME280;51113;53.646;-113.674;2023-05-31T04:02:51;92949.06;;;12.72;80.47
64687;BME280;51113;53.646;-113.674;2023-05-31T04:05:30;92944.25;;;12.79;80.68
64687;BME280;51113;53.646;-113.674;2023-05-31T04:07:59;92946.66;;;12.61;80.44
64687;BME280;51113;53.646;-113.674;2023-05-31T04:10:30;92955.53;;;12.60;80.09
64687;BME280;51113;53.646;-113.674;2023-05-31T04:12:59;92945.88;;;12.47;80.79
64687;BME280;51113;53.646;-113.674;2023-05-31T04:15:28;92942.50;;;12.47;80.45
64687;BME280;51113;53.646;-113.674;2023-05-31T04:17:57;92935.28;;;12.44;80.62
64687;BME280;51113;53.646;-113.674;2023-05-31T04:20:26;92924.84;;;12.16;81.87
64687;BME280;51113;53.646;-113.674;2023-05-31T04:22:55;92928.78;;;12.14;82.90
64687;BME280;51113;53.646;-113.674;2023-05-31T04:25:23;92926.06;;;12.05;82.52
64687;BME280;51113;53.646;-113.674;2023-05-31T04:27:53;92912.09;;;12.01;82.29
64687;BME280;51113;53.646;-113.674;2023-05-31T04:30:22;92905.06;;;12.02;82.04
64687;BME280;51113;53.646;-113.674;2023-05-31T04:32:55;92916.44;;;12.06;81.74
64687;BME280;51113;53.646;-113.674;2023-05-31T04:35:25;92907.75;;;11.96;82.38
64687;BME280;51113;53.646;-113.674;2023-05-31T04:37:57;92907.16;;;12.00;82.20
64687;BME280;51113;53.646;-113.674;2023-05-31T04:40:28;92908.13;;;12.04;80.23
64687;BME280;51113;53.646;-113.674;2023-05-31T04:43:00;92925.59;;;12.03;80.39
64687;BME280;51113;53.646;-113.674;2023-05-31T04:45:31;92925.97;;;11.96;80.53
64687;BME280;51113;53.646;-113.674;2023-05-31T04:48:00;92944.75;;;11.93;80.28
64687;BME280;51113;53.646;-113.674;2023-05-31T04:50:29;92942.13;;;11.93;80.36
64687;BME280;51113;53.646;-113.674;2023-05-31T04:52:57;92948.88;;;11.94;80.08
64687;BME280;51113;53.646;-113.674;2023-05-31T04:55:26;92956.91;;;11.98;79.85
64687;BME280;51113;53.646;-113.674;2023-05-31T04:57:54;92949.22;;;12.07;78.50
64687;BME280;51113;53.646;-113.674;2023-05-31T05:00:23;92960.03;;;12.14;78.09
64687;BME280;51113;53.646;-113.674;2023-05-31T05:02:51;92961.75;;;12.18;77.59
64687;BME280;51113;53.646;-113.674;2023-05-31T05:05:20;92965.91;;;12.19;77.41
64687;BME280;51113;53.646;-113.674;2023-05-31T05:07:49;92979.91;;;12.23;76.86
64687;BME280;51113;53.646;-113.674;2023-05-31T05:10:18;92986.06;;;12.27;77.10
64687;BME280;51113;53.646;-113.674;2023-05-31T05:12:46;92983.28;;;12.24;77.66
64687;BME280;51113;53.646;-113.674;2023-05-31T05:15:15;92983.00;;;12.25;76.68
64687;BME280;51113;53.646;-113.674;2023-05-31T05:17:44;92979.91;;;12.23;76.94
64687;BME280;51113;53.646;-113.674;2023-05-31T05:20:14;92984.81;;;12.25;76.97
64687;BME280;51113;53.646;-113.674;2023-05-31T05:22:49;92988.47;;;12.24;76.83
64687;BME280;51113;53.646;-113.674;2023-05-31T05:25:19;92991.66;;;12.21;77.15
64687;BME280;51113;53.646;-113.674;2023-05-31T05:27:51;93008.09;;;12.03;78.85
64687;BME280;51113;53.646;-113.674;2023-05-31T05:30:19;93019.91;;;11.76;80.31
64687;BME280;51113;53.646;-113.674;2023-05-31T05:32:48;93025.69;;;11.73;79.97
64687;BME280;51113;53.646;-113.674;2023-05-31T05:35:17;93017.94;;;11.68;80.93
64687;BME280;51113;53.646;-113.674;2023-05-31T05:37:46;93011.50;;;11.65;79.76
64687;BME280;51113;53.646;-113.674;2023-05-31T05:40:14;93006.28;;;11.65;79.64
64687;BME280;51113;53.646;-113.674;2023-05-31T05:42:43;93002.91;;;11.65;79.65
64687;BME280;51113;53.646;-113.674;2023-05-31T05:45:12;92996.16;;;11.45;81.04
64687;BME280;51113;53.646;-113.674;2023-05-31T05:47:41;92996.88;;;11.32;82.11
64687;BME280;51113;53.646;-113.674;2023-05-31T05:50:13;93008.31;;;11.31;82.26
64687;BME280;51113;53.646;-113.674;2023-05-31T05:52:42;93022.72;;;11.23;82.82
64687;BME280;51113;53.646;-113.674;2023-05-31T05:55:11;93023.00;;;11.22;83.45
64687;BME280;51113;53.646;-113.674;2023-05-31T05:57:40;93028.19;;;11.22;82.85
64687;BME280;51113;53.646;-113.674;2023-05-31T06:00:08;93037.31;;;11.19;82.77
64687;BME280;51113;53.646;-113.674;2023-05-31T06:02:42;93042.91;;;11.08;83.47
64687;BME280;51113;53.646;-113.674;2023-05-31T06:05:11;93040.28;;;10.89;83.82
64687;BME280;51113;53.646;-113.674;2023-05-31T06:07:40;93038.50;;;10.84;84.46
64687;BME280;51113;53.646;-113.674;2023-05-31T06:10:09;93033.09;;;10.81;84.87
64687;BME280;51113;53.646;-113.674;2023-05-31T06:12:38;93036.84;;;10.70;84.41
64687;BME280;51113;53.646;-113.674;2023-05-31T06:15:07;93041.25;;;10.69;85.15
64687;BME280;51113;53.646;-113.674;2023-05-31T06:17:36;93050.56;;;10.75;85.49
64687;BME280;51113;53.646;-113.674;2023-05-31T06:20:06;93051.94;;;10.67;85.59
64687;BME280;51113;53.646;-113.674;2023-05-31T06:22:35;93055.53;;;10.72;86.17
64687;BME280;51113;53.646;-113.674;2023-05-31T06:25:04;93034.41;;;10.78;85.76
64687;BME280;51113;53.646;-113.674;2023-05-31T06:27:33;93034.81;;;10.90;84.81
64687;BME280;51113;53.646;-113.674;2023-05-31T06:30:02;93032.31;;;11.04;84.29
64687;BME280;51113;53.646;-113.674;2023-05-31T06:32:31;93030.88;;;10.93;85.08
64687;BME280;51113;53.646;-113.674;2023-05-31T06:35:00;93034.31;;;10.88;85.63
64687;BME280;51113;53.646;-113.674;2023-05-31T06:37:28;93043.22;;;10.82;86.48
64687;BME280;51113;53.646;-113.674;2023-05-31T06:39:57;93042.31;;;10.68;87.16
64687;BME280;51113;53.646;-113.674;2023-05-31T06:42:26;93048.59;;;10.62;87.89
64687;BME280;51113;53.646;-113.674;2023-05-31T06:44:55;93058.78;;;10.58;88.19
64687;BME280;51113;53.646;-113.674;2023-05-31T06:47:23;93046.13;;;10.52;88.51
64687;BME280;51113;53.646;-113.674;2023-05-31T06:49:52;93052.94;;;10.43;88.43
64687;BME280;51113;53.646;-113.674;2023-05-31T06:52:21;93077.81;;;10.49;88.82
64687;BME280;51113;53.646;-113.674;2023-05-31T06:54:50;93084.31;;;10.46;88.88
64687;BME280;51113;53.646;-113.674;2023-05-31T06:57:19;93087.97;;;10.45;89.18
64687;BME280;51113;53.646;-113.674;2023-05-31T06:59:48;93095.84;;;10.35;89.60
64687;BME280;51113;53.646;-113.674;2023-05-31T07:02:17;93092.00;;;10.27;89.85
64687;BME280;51113;53.646;-113.674;2023-05-31T07:04:45;93095.84;;;10.35;89.48
64687;BME280;51113;53.646;-113.674;2023-05-31T07:07:14;93091.69;;;10.34;89.43
64687;BME280;51113;53.646;-113.674;2023-05-31T07:09:43;93098.97;;;10.32;90.13
64687;BME280;51113;53.646;-113.674;2023-05-31T07:12:12;93102.06;;;10.34;89.97
64687;BME280;51113;53.646;-113.674;2023-05-31T07:14:41;93107.81;;;10.31;90.00
64687;BME280;51113;53.646;-113.674;2023-05-31T07:17:10;93116.34;;;10.37;90.23
64687;BME280;51113;53.646;-113.674;2023-05-31T07:19:45;93108.53;;;10.37;90.83
64687;BME280;51113;53.646;-113.674;2023-05-31T07:22:15;93093.16;;;10.45;90.55
64687;BME280;51113;53.646;-113.674;2023-05-31T07:24:45;93074.84;;;10.60;90.24
64687;BME280;51113;53.646;-113.674;2023-05-31T07:27:14;93073.75;;;10.66;90.32
64687;BME280;51113;53.646;-113.674;2023-05-31T07:29:43;93070.94;;;10.63;90.54
64687;BME280;51113;53.646;-113.674;2023-05-31T07:32:12;93073.25;;;10.64;90.77
64687;BME280;51113;53.646;-113.674;2023-05-31T07:34:40;93070.88;;;10.68;90.52
64687;BME280;51113;53.646;-113.674;2023-05-31T07:37:29;93074.56;;;10.62;90.52
64687;BME280;51113;53.646;-113.674;2023-05-31T07:39:59;93083.47;;;10.56;90.73
64687;BME280;51113;53.646;-113.674;2023-05-31T07:42:27;93097.41;;;10.65;90.71
64687;BME280;51113;53.646;-113.674;2023-05-31T07:44:56;93093.56;;;10.57;90.93
64687;BME280;51113;53.646;-113.674;2023-05-31T07:47:25;93092.78;;;10.57;91.17
64687;BME280;51113;53.646;-113.674;2023-05-31T07:49:54;93093.25;;;10.64;91.34
64687;BME280;51113;53.646;-113.674;2023-05-31T07:52:22;93093.75;;;10.66;91.19
64687;BME280;51113;53.646;-113.674;2023-05-31T07:54:51;93089.34;;;10.66;90.76
64687;BME280;51113;53.646;-113.674;2023-05-31T07:57:20;93085.41;;;10.69;90.83
64687;BME280;51113;53.646;-113.674;2023-05-31T07:59:50;93091.06;;;10.76;90.69
64687;BME280;51113;53.646;-113.674;2023-05-31T08:02:19;93085.81;;;10.81;90.61
64687;BME280;51113;53.646;-113.674;2023-05-31T08:04:48;93077.16;;;10.91;89.33
64687;BME280;51113;53.646;-113.674;2023-05-31T08:07:17;93066.69;;;10.96;89.15
64687;BME280;51113;53.646;-113.674;2023-05-31T08:09:45;93060.72;;;10.95;89.32
64687;BME280;51113;53.646;-113.674;2023-05-31T08:12:15;93062.50;;;11.00;89.05
64687;BME280;51113;53.646;-113.674;2023-05-31T08:14:48;93062.72;;;11.04;89.02
64687;BME280;51113;53.646;-113.674;2023-05-31T08:17:17;93069.34;;;10.91;90.08
64687;BME280;51113;53.646;-113.674;2023-05-31T08:19:46;93064.16;;;10.91;90.17
64687;BME280;51113;53.646;-113.674;2023-05-31T08:22:14;93069.06;;;10.92;89.71
64687;BME280;51113;53.646;-113.674;2023-05-31T08:24:43;93067.81;;;10.90;90.14
64687;BME280;51113;53.646;-113.674;2023-05-31T08:27:12;93054.66;;;10.81;90.19
64687;BME280;51113;53.646;-113.674;2023-05-31T08:29:40;93036.13;;;10.88;90.04
64687;BME280;51113;53.646;-113.674;2023-05-31T08:32:09;93025.13;;;10.96;88.63
64687;BME280;51113;53.646;-113.674;2023-05-31T08:34:38;93026.72;;;10.92;89.13
64687;BME280;51113;53.646;-113.674;2023-05-31T08:37:07;93016.94;;;10.84;89.27
64687;BME280;51113;53.646;-113.674;2023-05-31T08:39:36;93015.75;;;10.76;89.36
64687;BME280;51113;53.646;-113.674;2023-05-31T08:42:12;93019.38;;;10.75;89.50
64687;BME280;51113;53.646;-113.674;2023-05-31T08:44:43;93021.50;;;10.73;89.15
64687;BME280;51113;53.646;-113.674;2023-05-31T08:47:22;93019.72;;;10.68;89.96
64687;BME280;51113;53.646;-113.674;2023-05-31T08:49:54;93029.81;;;10.70;89.63
64687;BME280;51113;53.646;-113.674;2023-05-31T08:52:24;93033.97;;;10.71;89.52
64687;BME280;51113;53.646;-113.674;2023-05-31T08:54:53;93051.09;;;10.72;89.54
64687;BME280;51113;53.646;-113.674;2023-05-31T08:57:23;93054.69;;;10.76;89.43
64687;BME280;51113;53.646;-113.674;2023-05-31T08:59:52;93061.94;;;10.79;89.87
64687;BME280;51113;53.646;-113.674;2023-05-31T09:02:23;93083.03;;;10.73;90.25
64687;BME280;51113;53.646;-113.674;2023-05-31T09:04:52;93098.44;;;10.64;90.46
64687;BME280;51113;53.646;-113.674;2023-05-31T09:07:21;93098.84;;;10.47;90.53
64687;BME280;51113;53.646;-113.674;2023-05-31T09:09:50;93085.88;;;10.47;91.36
64687;BME280;51113;53.646;-113.674;2023-05-31T09:12:18;93093.13;;;10.50;90.83
64687;BME280;51113;53.646;-113.674;2023-05-31T09:14:48;93102.69;;;10.55;91.43
64687;BME280;51113;53.646;-113.674;2023-05-31T09:17:17;93099.84;;;10.51;91.15
64687;BME280;51113;53.646;-113.674;2023-05-31T09:19:50;93091.88;;;10.43;91.44
64687;BME280;51113;53.646;-113.674;2023-05-31T09:22:23;93089.09;;;10.34;91.65
64687;BME280;51113;53.646;-113.674;2023-05-31T09:24:59;93111.13;;;10.37;91.86
64687;BME280;51113;53.646;-113.674;2023-05-31T09:27:35;93132.19;;;10.35;91.45
64687;BME280;51113;53.646;-113.674;2023-05-31T09:30:09;93125.72;;;10.32;91.54
64687;BME280;51113;53.646;-113.674;2023-05-31T09:32:38;93113.34;;;10.14;91.75
64687;BME280;51113;53.646;-113.674;2023-05-31T09:35:18;93112.63;;;10.09;92.46
64687;BME280;51113;53.646;-113.674;2023-05-31T09:37:53;93099.88;;;10.12;92.48
64687;BME280;51113;53.646;-113.674;2023-05-31T09:40:23;93099.34;;;10.15;92.28
64687;BME280;51113;53.646;-113.674;2023-05-31T09:42:55;93119.03;;;10.21;92.61
64687;BME280;51113;53.646;-113.674;2023-05-31T09:45:24;93115.94;;;10.14;91.88
64687;BME280;51113;53.646;-113.674;2023-05-31T09:47:53;93108.72;;;10.11;92.13
64687;BME280;51113;53.646;-113.674;2023-05-31T09:50:22;93118.94;;;9.92;90.89
64687;BME280;51113;53.646;-113.674;2023-05-31T09:52:57;93132.75;;;9.83;92.41
64687;BME280;51113;53.646;-113.674;2023-05-31T09:55:38;93129.59;;;9.91;92.09
64687;BME280;51113;53.646;-113.674;2023-05-31T09:58:08;93128.41;;;9.68;91.05
64687;BME280;51113;53.646;-113.674;2023-05-31T10:00:44;93133.94;;;9.51;91.44
64687;BME280;51113;53.646;-113.674;2023-05-31T10:03:14;93132.41;;;9.45;93.24
64687;BME280;51113;53.646;-113.674;2023-05-31T10:05:43;93122.78;;;9.56;94.09
64687;BME280;51113;53.646;-113.674;2023-05-31T10:08:12;93111.59;;;9.65;93.95
64687;BME280;51113;53.646;-113.674;2023-05-31T10:10:42;93122.78;;;9.56;92.94
64687;BME280;51113;53.646;-113.674;2023-05-31T10:13:12;93121.03;;;9.41;93.47
64687;BME280;51113;53.646;-113.674;2023-05-31T10:15:43;93108.63;;;9.33;93.77
64687;BME280;51113;53.646;-113.674;2023-05-31T10:18:16;93120.78;;;9.37;94.30
64687;BME280;51113;53.646;-113.674;2023-05-31T10:20:59;93112.22;;;9.42;94.36
64687;BME280;51113;53.646;-113.674;2023-05-31T10:23:30;93125.22;;;9.27;93.45
64687;BME280;51113;53.646;-113.674;2023-05-31T10:26:22;93126.31;;;9.16;93.19
64687;BME280;51113;53.646;-113.674;2023-05-31T10:29:05;93128.41;;;9.09;93.43
64687;BME280;51113;53.646;-113.674;2023-05-31T10:31:41;93124.00;;;9.04;93.24
64687;BME280;51113;53.646;-113.674;2023-05-31T10:34:20;93131.00;;;9.03;93.52
64687;BME280;51113;53.646;-113.674;2023-05-31T10:36:51;93140.06;;;9.01;93.03
64687;BME280;51113;53.646;-113.674;2023-05-31T10:39:29;93136.97;;;8.94;93.09
64687;BME280;51113;53.646;-113.674;2023-05-31T10:42:12;93141.34;;;9.03;93.40
64687;BME280;51113;53.646;-113.674;2023-05-31T10:45:36;93143.44;;;8.96;93.17
64687;BME280;51113;53.646;-113.674;2023-05-31T10:50:29;93145.00;;;8.92;94.19
64687;BME280;51113;53.646;-113.674;2023-05-31T10:53:11;93138.00;;;9.03;94.63
64687;BME280;51113;53.646;-113.674;2023-05-31T10:55:45;93135.69;;;8.96;94.83
64687;BME280;51113;53.646;-113.674;2023-05-31T11:00:58;93137.72;;;9.04;94.93
64687;BME280;51113;53.646;-113.674;2023-05-31T11:03:33;93138.53;;;8.90;94.75
64687;BME280;51113;53.646;-113.674;2023-05-31T11:06:07;93146.06;;;8.81;95.21
64687;BME280;51113;53.646;-113.674;2023-05-31T11:08:39;93151.00;;;8.72;95.24
64687;BME280;51113;53.646;-113.674;2023-05-31T11:11:26;93155.66;;;8.76;95.43
64687;BME280;51113;53.646;-113.674;2023-05-31T11:13:57;93150.75;;;8.64;95.08
64687;BME280;51113;53.646;-113.674;2023-05-31T11:16:27;93151.28;;;8.56;94.82
64687;BME280;51113;53.646;-113.674;2023-05-31T11:19:07;93149.19;;;8.58;94.95
64687;BME280;51113;53.646;-113.674;2023-05-31T11:21:46;93146.34;;;8.54;94.97
64687;BME280;51113;53.646;-113.674;2023-05-31T11:24:28;93150.75;;;8.64;95.15
64687;BME280;51113;53.646;-113.674;2023-05-31T11:26:58;93152.81;;;8.72;95.08
64687;BME280;51113;53.646;-113.674;2023-05-31T11:32:20;93157.97;;;8.82;95.06
64687;BME280;51113;53.646;-113.674;2023-05-31T11:34:53;93152.50;;;8.94;95.58
64687;BME280;51113;53.646;-113.674;2023-05-31T11:37:32;93160.53;;;8.97;95.53
64687;BME280;51113;53.646;-113.674;2023-05-31T11:40:09;93147.31;;;9.04;95.58
64687;BME280;51113;53.646;-113.674;2023-05-31T11:42:40;93144.97;;;9.07;95.82
64687;BME280;51113;53.646;-113.674;2023-05-31T11:45:11;93148.59;;;9.06;95.54
64687;BME280;51113;53.646;-113.674;2023-05-31T11:50:14;93163.06;;;9.23;95.88
64687;BME280;51113;53.646;-113.674;2023-05-31T11:52:46;93162.00;;;9.29;96.06
64687;BME280;51113;53.646;-113.674;2023-05-31T11:55:15;93159.41;;;9.29;95.75
64687;BME280;51113;53.646;-113.674;2023-05-31T11:57:46;93157.88;;;9.28;96.14
64687;BME280;51113;53.646;-113.674;2023-05-31T12:00:20;93170.78;;;9.38;96.17
64687;BME280;51113;53.646;-113.674;2023-05-31T12:02:54;93175.44;;;9.41;95.89
64687;BME280;51113;53.646;-113.674;2023-05-31T12:05:27;93175.19;;;9.43;95.93
64687;BME280;51113;53.646;-113.674;2023-05-31T12:07:56;93179.31;;;9.49;95.96
64687;BME280;51113;53.646;-113.674;2023-05-31T12:10:26;93185.47;;;9.63;96.24
64687;BME280;51113;53.646;-113.674;2023-05-31T12:12:57;93181.09;;;9.58;96.02
64687;BME280;51113;53.646;-113.674;2023-05-31T12:15:30;93181.09;;;9.53;96.23
64687;BME280;51113;53.646;-113.674;2023-05-31T12:17:59;93186.81;;;9.55;95.81
64687;BME280;51113;53.646;-113.674;2023-05-31T12:20:29;93184.44;;;9.64;96.00
64687;BME280;51113;53.646;-113.674;2023-05-31T12:23:15;93190.75;;;9.43;95.76
64687;BME280;51113;53.646;-113.674;2023-05-31T12:25:50;93194.59;;;9.50;95.83
64687;BME280;51113;53.646;-113.674;2023-05-31T12:28:20;93202.38;;;9.45;96.28
64687;BME280;51113;53.646;-113.674;2023-05-31T12:30:49;93201.88;;;9.43;95.98
64687;BME280;51113;53.646;-113.674;2023-05-31T12:33:21;93187.41;;;9.32;96.19
64687;BME280;51113;53.646;-113.674;2023-05-31T12:35:50;93196.47;;;9.29;96.09
64687;BME280;51113;53.646;-113.674;2023-05-31T12:38:27;93203.97;;;9.31;96.04
64687;BME280;51113;53.646;-113.674;2023-05-31T12:40:56;93197.28;;;9.20;96.41
64687;BME280;51113;53.646;-113.674;2023-05-31T12:43:25;93208.91;;;9.27;96.45
64687;BME280;51113;53.646;-113.674;2023-05-31T12:45:54;93207.06;;;9.38;96.34
64687;BME280;51113;53.646;-113.674;2023-05-31T12:48:23;93207.09;;;9.33;95.93
64687;BME280;51113;53.646;-113.674;2023-05-31T12:50:53;93208.91;;;9.32;95.86
64687;BME280;51113;53.646;-113.674;2023-05-31T12:53:25;93213.56;;;9.30;96.14
64687;BME280;51113;53.646;-113.674;2023-05-31T12:55:54;93219.97;;;9.58;95.65
64687;BME280;51113;53.646;-113.674;2023-05-31T12:58:22;93224.34;;;9.73;95.20
64687;BME280;51113;53.646;-113.674;2023-05-31T13:00:51;93228.50;;;9.69;94.77
64687;BME280;51113;53.646;-113.674;2023-05-31T13:03:20;93222.53;;;9.68;94.47
64687;BME280;51113;53.646;-113.674;2023-05-31T13:05:49;93218.72;;;9.46;94.87
64687;BME280;51113;53.646;-113.674;2023-05-31T13:08:18;93227.97;;;9.67;94.77
64687;BME280;51113;53.646;-113.674;2023-05-31T13:10:46;93222.19;;;9.90;94.44